createdAt,value
2022-10-29T00:02:12.080Z,18.86
2022-10-29T00:04:41.834Z,18.82
2022-10-29T00:07:11.594Z,18.68
2022-10-29T00:09:41.307Z,18.84
2022-10-29T00:12:13.812Z,18.80
2022-10-29T00:14:43.518Z,18.78
2022-10-29T00:17:13.287Z,18.75
2022-10-29T00:19:42.994Z,18.86
2022-10-29T00:22:12.719Z,18.88
2022-10-29T00:24:42.443Z,18.83
2022-10-29T00:27:14.763Z,18.89
2022-10-29T00:29:44.649Z,18.84
2022-10-29T00:32:14.592Z,18.71
2022-10-29T00:34:44.367Z,18.79
2022-10-29T00:37:14.180Z,18.76
2022-10-29T00:39:43.888Z,18.80
2022-10-29T00:42:19.954Z,18.70
2022-10-29T00:44:51.333Z,18.83
2022-10-29T00:47:25.088Z,18.86
2022-10-29T00:49:59.877Z,18.88
2022-10-29T00:52:33.423Z,18.82
2022-10-29T00:55:05.786Z,18.83
2022-10-29T00:57:42.435Z,18.86
2022-10-29T01:00:14.683Z,18.80
2022-10-29T01:02:46.492Z,18.79
2022-10-29T01:05:21.476Z,18.74
2022-10-29T01:07:51.270Z,18.70
2022-10-29T01:10:30.523Z,18.70
2022-10-29T01:13:18.049Z,18.51
2022-10-29T01:15:58.030Z,18.51
2022-10-29T01:18:36.698Z,18.57
2022-10-29T01:21:24.027Z,18.52
2022-10-29T01:24:23.625Z,18.44
2022-10-29T01:27:18.205Z,18.28
2022-10-29T01:30:05.257Z,18.34
2022-10-29T01:32:48.376Z,18.01
2022-10-29T01:35:24.841Z,18.22
2022-10-29T01:38:04.777Z,18.19
2022-10-29T01:40:39.240Z,18.20
2022-10-29T01:43:16.075Z,18.22
2022-10-29T01:45:49.905Z,18.08
2022-10-29T01:48:33.021Z,18.23
2022-10-29T01:51:10.033Z,18.27
2022-10-29T01:53:41.164Z,18.25
2022-10-29T01:56:11.028Z,17.82
2022-10-29T01:58:42.871Z,18.25
2022-10-29T02:01:28.399Z,18.25
2022-10-29T02:04:12.305Z,18.25
2022-10-29T02:06:50.737Z,18.22
2022-10-29T02:09:28.978Z,18.14
2022-10-29T02:12:04.328Z,18.05
2022-10-29T02:14:38.128Z,18.15
2022-10-29T02:17:09.731Z,18.11
2022-10-29T02:19:42.176Z,18.12
2022-10-29T02:22:11.921Z,18.10
2022-10-29T02:24:41.608Z,17.98
2022-10-29T02:27:11.308Z,18.06
2022-10-29T02:29:41.747Z,18.04
2022-10-29T02:32:11.580Z,17.72
2022-10-29T02:34:43.877Z,18.01
2022-10-29T02:37:13.623Z,17.95
2022-10-29T02:39:43.336Z,17.79
2022-10-29T02:42:13.448Z,17.88
2022-10-29T02:44:43.180Z,17.76
2022-10-29T02:47:12.906Z,17.76
2022-10-29T02:49:45.209Z,17.71
2022-10-29T02:52:14.982Z,17.80
2022-10-29T02:54:44.763Z,17.73
2022-10-29T02:57:14.479Z,17.77
2022-10-29T02:59:44.206Z,17.72
2022-10-29T03:02:14.103Z,17.62
2022-10-29T03:04:46.914Z,17.60
2022-10-29T03:07:16.635Z,17.44
2022-10-29T03:09:46.338Z,17.34
2022-10-29T03:12:16.136Z,17.26
2022-10-29T03:14:45.853Z,17.46
2022-10-29T03:17:15.550Z,17.42
2022-10-29T03:19:47.886Z,17.44
2022-10-29T03:22:17.717Z,17.38
2022-10-29T03:24:47.532Z,17.09
2022-10-29T03:27:17.253Z,17.37
2022-10-29T03:29:46.933Z,17.26
2022-10-29T03:32:16.664Z,17.35
2022-10-29T03:34:49.041Z,17.38
2022-10-29T03:37:18.757Z,17.19
2022-10-29T03:39:48.493Z,17.35
2022-10-29T03:42:18.222Z,17.25
2022-10-29T03:44:47.895Z,17.30
2022-10-29T03:47:17.670Z,17.25
2022-10-29T03:49:49.966Z,17.25
2022-10-29T03:52:19.924Z,17.12
2022-10-29T03:54:49.766Z,17.00
2022-10-29T03:57:19.516Z,17.14
2022-10-29T03:59:52.409Z,17.14
2022-10-29T04:02:22.691Z,17.05
2022-10-29T04:04:55.154Z,17.11
2022-10-29T04:07:25.046Z,16.96
2022-10-29T04:09:54.835Z,16.85
2022-10-29T04:12:24.566Z,16.78
2022-10-29T04:14:54.269Z,16.87
2022-10-29T04:17:24.038Z,16.82
2022-10-29T04:19:56.426Z,16.78
2022-10-29T04:30:55.914Z,16.67
2022-10-29T04:33:25.693Z,16.67
2022-10-29T04:35:58.291Z,16.75
2022-10-29T04:38:28.098Z,16.63
2022-10-29T04:41:00.926Z,16.79
2022-10-29T04:43:31.795Z,16.61
2022-10-29T04:46:02.787Z,16.77
2022-10-29T04:48:32.628Z,16.84
2022-10-29T04:51:05.011Z,16.70
2022-10-29T04:53:34.883Z,16.91
2022-10-29T04:56:05.740Z,16.92
2022-10-29T04:58:35.528Z,16.93
2022-10-29T05:01:05.857Z,16.76
2022-10-29T05:03:36.598Z,16.80
2022-10-29T05:06:09.845Z,16.53
2022-10-29T05:08:39.605Z,16.80
2022-10-29T05:11:09.932Z,16.84
2022-10-29T05:13:39.678Z,16.73
2022-10-29T05:16:10.806Z,16.83
2022-10-29T05:18:40.664Z,16.69
2022-10-29T05:21:14.078Z,16.81
2022-10-29T05:23:44.894Z,16.77
2022-10-29T05:26:14.710Z,16.54
2022-10-29T05:28:44.508Z,16.63
2022-10-29T05:31:14.292Z,16.44
2022-10-29T05:33:45.171Z,16.51
2022-10-29T05:36:17.590Z,16.64
2022-10-29T05:38:47.459Z,16.60
2022-10-29T05:41:18.252Z,16.68
2022-10-29T05:43:51.522Z,16.65
2022-10-29T05:46:22.275Z,16.72
2022-10-29T05:48:53.013Z,16.58
2022-10-29T05:51:26.660Z,16.62
2022-10-29T05:53:57.530Z,16.89
2022-10-29T05:56:27.382Z,16.97
2022-10-29T05:58:57.205Z,17.00
2022-10-29T06:01:27.064Z,16.71
2022-10-29T06:03:57.024Z,16.94
2022-10-29T06:06:29.603Z,16.78
2022-10-29T06:09:00.488Z,16.79
2022-10-29T06:11:31.344Z,16.81
2022-10-29T06:14:01.285Z,16.83
2022-10-29T06:16:31.178Z,16.85
2022-10-29T06:19:01.049Z,16.83
2022-10-29T06:21:35.671Z,16.97
2022-10-29T06:24:05.760Z,16.86
2022-10-29T06:26:37.417Z,16.75
2022-10-29T06:29:07.285Z,17.13
2022-10-29T06:31:37.175Z,16.97
2022-10-29T06:34:06.980Z,17.16
2022-10-29T06:36:39.482Z,17.09
2022-10-29T06:39:09.393Z,17.24
2022-10-29T06:41:39.189Z,17.22
2022-10-29T06:44:09.131Z,17.20
2022-10-29T06:46:41.660Z,17.28
2022-10-29T06:49:11.517Z,17.07
2022-10-29T06:51:43.964Z,17.29
2022-10-29T06:54:14.039Z,17.28
2022-10-29T06:56:44.836Z,17.21
2022-10-29T06:59:15.666Z,17.21
2022-10-29T07:01:46.766Z,17.33
2022-10-29T07:04:18.459Z,17.28
2022-10-29T07:06:51.969Z,17.45
2022-10-29T07:09:22.814Z,17.35
2022-10-29T07:11:52.658Z,17.35
2022-10-29T07:14:22.539Z,17.28
2022-10-29T07:16:52.441Z,17.52
2022-10-29T07:19:23.316Z,17.44
2022-10-29T07:21:55.781Z,17.57
2022-10-29T07:24:26.654Z,17.50
2022-10-29T07:26:57.451Z,17.48
2022-10-29T07:29:29.276Z,17.58
2022-10-29T07:31:59.118Z,17.38
2022-10-29T07:34:28.998Z,17.42
2022-10-29T07:37:03.544Z,17.48
2022-10-29T07:39:35.415Z,17.53
2022-10-29T07:42:05.649Z,17.60
2022-10-29T07:44:35.424Z,17.70
2022-10-29T07:47:06.286Z,17.68
2022-10-29T07:49:36.094Z,17.53
2022-10-29T07:52:09.574Z,17.42
2022-10-29T07:54:40.425Z,17.39
2022-10-29T07:57:13.438Z,17.30
2022-10-29T07:59:44.260Z,17.26
2022-10-29T08:02:15.144Z,17.42
2022-10-29T08:04:46.007Z,17.55
2022-10-29T08:07:19.591Z,17.68
2022-10-29T08:09:49.498Z,17.64
2022-10-29T08:12:20.366Z,17.88
2022-10-29T08:14:50.138Z,17.99
2022-10-29T08:17:20.937Z,18.07
2022-10-29T08:19:50.729Z,18.22
2022-10-29T08:22:23.244Z,18.34
2022-10-29T08:24:54.045Z,18.38
2022-10-29T08:27:23.897Z,18.47
2022-10-29T08:29:54.719Z,18.52
2022-10-29T08:32:24.513Z,18.48
2022-10-29T08:34:56.250Z,18.78
2022-10-29T08:37:29.863Z,18.86
2022-10-29T08:40:04.427Z,18.90
2022-10-29T08:42:46.035Z,18.78
2022-10-29T08:45:26.511Z,18.54
2022-10-29T08:48:23.398Z,18.61
2022-10-29T08:50:59.889Z,18.55
2022-10-29T08:53:39.411Z,18.92
2022-10-29T08:56:18.822Z,18.79
2022-10-29T08:58:58.086Z,19.09
2022-10-29T09:01:28.324Z,19.09
2022-10-29T09:03:59.428Z,19.31
2022-10-29T09:06:52.296Z,19.30
2022-10-29T09:09:33.026Z,19.32
2022-10-29T09:12:18.232Z,19.33
2022-10-29T09:15:17.365Z,19.46
2022-10-29T09:17:54.975Z,19.59
2022-10-29T09:20:33.858Z,19.65
2022-10-29T09:23:15.704Z,19.53
2022-10-29T09:25:56.409Z,19.64
2022-10-29T09:28:38.663Z,19.89
2022-10-29T09:31:21.793Z,19.94
2022-10-29T09:33:59.327Z,19.93
2022-10-29T09:36:34.220Z,19.72
2022-10-29T09:39:15.228Z,19.89
2022-10-29T09:41:49.283Z,19.96
2022-10-29T09:44:24.622Z,20.04
2022-10-29T09:47:09.857Z,20.95
2022-10-29T09:50:05.218Z,20.63
2022-10-29T09:52:42.499Z,20.40
2022-10-29T09:55:22.236Z,20.36
2022-10-29T09:57:55.678Z,20.24
2022-10-29T10:00:27.710Z,20.34
2022-10-29T10:03:04.713Z,20.36
2022-10-29T10:05:37.041Z,20.42
2022-10-29T10:08:12.281Z,20.63
2022-10-29T10:10:55.988Z,20.37
2022-10-29T10:13:31.654Z,20.29
2022-10-29T10:16:04.490Z,20.25
2022-10-29T10:21:17.086Z,20.39
2022-10-29T10:23:48.902Z,20.50
2022-10-29T10:26:36.561Z,20.46
2022-10-29T10:29:14.601Z,20.55
2022-10-29T10:31:46.178Z,20.53
2022-10-29T10:34:21.541Z,20.63
2022-10-29T10:36:55.451Z,20.73
2022-10-29T10:39:30.339Z,20.74
2022-10-29T10:42:03.009Z,20.70
2022-10-29T10:44:37.874Z,20.39
2022-10-29T10:47:10.043Z,20.80
2022-10-29T10:49:41.853Z,20.81
2022-10-29T10:52:19.484Z,21.00
2022-10-29T10:54:56.922Z,21.03
2022-10-29T10:57:30.455Z,20.98
2022-10-29T11:00:07.961Z,20.97
2022-10-29T11:02:47.874Z,20.99
2022-10-29T11:05:21.304Z,21.14
2022-10-29T11:08:01.358Z,21.21
2022-10-29T11:10:39.864Z,21.31
2022-10-29T11:13:18.236Z,21.23
2022-10-29T11:15:57.081Z,21.38
2022-10-29T11:18:34.304Z,21.35
2022-10-29T11:21:12.570Z,21.32
2022-10-29T11:23:50.400Z,21.45
2022-10-29T11:26:24.946Z,21.38
2022-10-29T11:29:02.513Z,21.53
2022-10-29T11:31:43.426Z,21.47
2022-10-29T11:34:19.831Z,21.87
2022-10-29T11:36:57.893Z,22.03
2022-10-29T11:39:33.658Z,22.13
2022-10-29T11:42:05.576Z,22.01
2022-10-29T11:44:42.025Z,21.85
2022-10-29T11:47:29.874Z,22.23
2022-10-29T11:50:17.881Z,22.24
2022-10-29T11:52:54.171Z,22.18
2022-10-29T11:55:33.291Z,22.24
2022-10-29T11:58:06.028Z,22.46
2022-10-29T12:00:51.257Z,22.43
2022-10-29T12:03:48.121Z,22.39
2022-10-29T12:06:24.678Z,22.44
2022-10-29T12:09:06.085Z,22.47
2022-10-29T12:11:44.106Z,22.50
2022-10-29T12:14:29.883Z,22.52
2022-10-29T12:17:12.291Z,22.69
2022-10-29T12:19:52.006Z,22.70
2022-10-29T12:22:31.273Z,22.61
2022-10-29T12:25:17.916Z,22.63
2022-10-29T12:27:55.959Z,22.50
2022-10-29T12:30:27.281Z,22.36
2022-10-29T12:33:02.133Z,22.48
2022-10-29T12:35:45.070Z,22.54
2022-10-29T12:38:31.278Z,22.37
2022-10-29T12:41:06.568Z,22.36
2022-10-29T12:43:38.874Z,22.46
2022-10-29T12:46:20.098Z,22.22
2022-10-29T12:49:01.025Z,22.30
2022-10-29T12:51:44.148Z,22.33
2022-10-29T12:54:24.381Z,22.13
2022-10-29T12:56:56.740Z,22.10
2022-10-29T12:59:36.906Z,22.23
2022-10-29T13:02:27.229Z,22.00
2022-10-29T13:05:16.760Z,21.83
2022-10-29T13:08:21.794Z,22.11
2022-10-29T13:10:56.947Z,22.17
2022-10-29T13:13:52.745Z,22.14
2022-10-29T13:16:28.042Z,21.76
2022-10-29T13:19:17.381Z,22.25
2022-10-29T13:22:05.611Z,22.26
2022-10-29T13:24:39.221Z,22.03
2022-10-29T13:27:36.333Z,22.38
2022-10-29T13:30:23.893Z,22.36
2022-10-29T13:32:55.521Z,22.68
2022-10-29T13:35:43.496Z,23.08
2022-10-29T13:38:21.333Z,23.10
2022-10-29T13:41:19.082Z,23.01
2022-10-29T13:43:57.278Z,22.97
2022-10-29T13:46:55.552Z,22.93
2022-10-29T13:49:29.704Z,22.82
2022-10-29T13:52:04.031Z,22.82
2022-10-29T13:54:42.055Z,22.83
2022-10-29T13:57:25.361Z,22.87
2022-10-29T14:00:01.077Z,22.99
2022-10-29T14:02:50.584Z,22.73
2022-10-29T14:05:28.208Z,22.88
2022-10-29T14:08:04.007Z,22.77
2022-10-29T14:10:38.892Z,22.37
2022-10-29T14:13:31.696Z,22.65
2022-10-29T14:16:04.853Z,22.70
2022-10-29T14:18:36.178Z,22.79
2022-10-29T14:21:09.590Z,22.73
2022-10-29T14:23:41.001Z,22.81
2022-10-29T14:28:51.976Z,22.57
2022-10-29T14:31:25.011Z,22.66
2022-10-29T14:33:57.882Z,22.43
2022-10-29T14:36:33.950Z,22.57
2022-10-29T14:39:08.557Z,22.30
2022-10-29T14:41:41.810Z,22.26
2022-10-29T14:44:21.654Z,22.39
2022-10-29T14:46:59.100Z,22.33
2022-10-29T14:49:30.790Z,22.32
2022-10-29T14:52:04.269Z,22.23
2022-10-29T14:54:38.570Z,22.31
2022-10-29T14:57:17.140Z,22.33
2022-10-29T14:59:57.181Z,22.31
2022-10-29T15:02:38.332Z,22.26
2022-10-29T15:05:27.197Z,22.33
2022-10-29T15:08:19.133Z,22.20
2022-10-29T15:10:51.368Z,22.21
2022-10-29T15:13:26.588Z,22.17
2022-10-29T15:16:03.209Z,22.12
2022-10-29T15:18:35.807Z,22.18
2022-10-29T15:21:08.106Z,22.02
2022-10-29T15:23:46.266Z,22.00
2022-10-29T15:26:21.653Z,21.94
2022-10-29T15:28:55.916Z,21.74
2022-10-29T15:31:36.073Z,21.95
2022-10-29T15:34:12.144Z,21.65
2022-10-29T15:36:51.956Z,21.71
2022-10-29T15:39:26.951Z,21.78
2022-10-29T15:41:59.294Z,21.60
2022-10-29T15:45:05.177Z,21.35
2022-10-29T15:47:40.249Z,21.44
2022-10-29T15:50:14.048Z,21.44
2022-10-29T15:52:47.278Z,21.37
2022-10-29T15:55:26.850Z,21.37
2022-10-29T15:58:07.047Z,21.39
2022-10-29T16:00:36.820Z,21.30
2022-10-29T16:03:17.289Z,20.93
2022-10-29T16:05:49.744Z,21.22
2022-10-29T16:08:27.439Z,21.10
2022-10-29T16:10:59.513Z,21.03
2022-10-29T16:13:33.033Z,20.94
2022-10-29T16:16:04.158Z,20.82
2022-10-29T16:18:37.567Z,20.91
2022-10-29T16:21:09.360Z,20.87
2022-10-29T16:23:41.210Z,20.83
2022-10-29T16:26:12.077Z,20.70
2022-10-29T16:28:41.909Z,20.63
2022-10-29T16:31:21.271Z,20.67
2022-10-29T16:33:55.556Z,20.57
2022-10-29T16:36:25.399Z,20.50
2022-10-29T16:38:56.236Z,20.53
2022-10-29T16:41:27.105Z,20.37
2022-10-29T16:43:56.940Z,20.35
2022-10-29T16:46:26.681Z,20.20
2022-10-29T16:48:59.248Z,20.32
2022-10-29T16:51:29.186Z,20.04
2022-10-29T16:53:59.036Z,20.01
2022-10-29T16:56:29.864Z,20.06
2022-10-29T16:59:02.007Z,20.18
2022-10-29T17:01:32.048Z,20.10
2022-10-29T17:04:04.556Z,19.98
2022-10-29T17:06:37.168Z,19.89
2022-10-29T17:09:08.516Z,19.88
2022-10-29T17:11:38.402Z,19.86
2022-10-29T17:14:09.319Z,19.94
2022-10-29T17:16:39.221Z,19.87
2022-10-29T17:19:11.670Z,19.77
2022-10-29T17:21:41.464Z,19.69
2022-10-29T17:24:11.510Z,19.63
2022-10-29T17:26:41.389Z,19.66
2022-10-29T17:29:11.399Z,19.52
2022-10-29T17:31:41.240Z,19.57
2022-10-29T17:34:14.843Z,19.33
2022-10-29T17:36:44.640Z,20.64
2022-10-29T17:39:14.545Z,20.01
2022-10-29T17:41:45.409Z,19.71
2022-10-29T17:44:15.512Z,19.53
2022-10-29T17:46:46.474Z,19.64
2022-10-29T17:49:18.858Z,19.58
2022-10-29T17:51:48.676Z,19.44
2022-10-29T17:54:21.367Z,19.49
2022-10-29T17:56:52.251Z,19.33
2022-10-29T17:59:22.120Z,19.42
2022-10-29T18:01:53.065Z,19.25
2022-10-29T18:04:25.514Z,19.41
2022-10-29T18:06:56.910Z,19.30
2022-10-29T18:09:26.841Z,19.30
2022-10-29T18:11:56.641Z,19.19
2022-10-29T18:14:26.576Z,19.03
2022-10-29T18:16:58.390Z,19.24
2022-10-29T18:19:31.048Z,19.24
2022-10-29T18:22:00.806Z,19.18
2022-10-29T18:24:32.709Z,19.02
2022-10-29T18:27:03.524Z,19.18
2022-10-29T18:29:33.320Z,19.16
2022-10-29T18:32:04.180Z,18.96
2022-10-29T18:34:36.798Z,19.15
2022-10-29T18:37:06.673Z,18.96
2022-10-29T18:39:36.561Z,18.81
2022-10-29T18:42:08.533Z,18.98
2022-10-29T18:44:39.672Z,19.01
2022-10-29T18:47:09.520Z,19.05
2022-10-29T18:49:41.928Z,19.03
2022-10-29T18:52:11.714Z,19.03
2022-10-29T18:54:41.552Z,18.76
2022-10-29T18:57:15.337Z,18.96
2022-10-29T18:59:49.093Z,18.93
2022-10-29T19:02:18.906Z,18.79
2022-10-29T19:04:51.470Z,18.91
2022-10-29T19:07:21.654Z,18.86
2022-10-29T19:09:51.563Z,18.66
2022-10-29T19:12:21.496Z,18.78
2022-10-29T19:14:51.320Z,18.62
2022-10-29T19:17:22.118Z,18.62
2022-10-29T19:19:55.655Z,18.60
2022-10-29T19:22:26.507Z,18.74
2022-10-29T19:24:57.326Z,18.70
2022-10-29T19:27:27.109Z,18.62
2022-10-29T19:29:58.086Z,18.63
2022-10-29T19:32:28.966Z,18.44
2022-10-29T19:35:02.464Z,18.64
2022-10-29T19:37:33.307Z,18.59
2022-10-29T19:40:05.360Z,18.41
2022-10-29T19:42:36.342Z,18.63
2022-10-29T19:45:06.576Z,18.58
2022-10-29T19:47:37.555Z,18.66
2022-10-29T19:50:12.928Z,18.38
2022-10-29T19:52:43.911Z,18.60
2022-10-29T19:55:14.596Z,18.43
2022-10-29T19:57:44.658Z,18.43
2022-10-29T20:00:17.765Z,18.55
2022-10-29T20:02:48.902Z,18.48
2022-10-29T20:05:21.639Z,18.35
2022-10-29T20:07:51.480Z,18.39
2022-10-29T20:10:23.560Z,18.28
2022-10-29T20:12:54.579Z,18.25
2022-10-29T20:15:24.501Z,18.21
2022-10-29T20:17:57.329Z,17.22
2022-10-29T20:20:31.031Z,18.18
2022-10-29T20:23:02.219Z,18.22
2022-10-29T20:25:32.439Z,17.40
2022-10-29T20:28:04.424Z,18.08
2022-10-29T20:30:35.263Z,18.11
2022-10-29T20:33:06.289Z,17.97
2022-10-29T20:35:38.681Z,18.00
2022-10-29T20:38:08.708Z,17.99
2022-10-29T20:40:39.543Z,18.00
2022-10-29T20:43:09.438Z,17.87
2022-10-29T20:45:39.284Z,17.84
2022-10-29T20:48:10.103Z,17.79
2022-10-29T20:50:43.623Z,17.94
2022-10-29T20:53:13.400Z,17.86
2022-10-29T20:55:44.228Z,17.87
2022-10-29T20:58:14.051Z,17.71
2022-10-29T21:00:44.286Z,17.51
2022-10-29T21:03:14.909Z,17.65
2022-10-29T21:05:47.326Z,17.75
2022-10-29T21:08:18.201Z,17.65
2022-10-29T21:10:51.619Z,17.73
2022-10-29T21:13:21.431Z,17.60
2022-10-29T21:15:54.620Z,17.68
2022-10-29T21:18:24.768Z,17.55
2022-10-29T21:20:58.165Z,17.54
2022-10-29T21:23:27.953Z,17.56
2022-10-29T21:25:58.821Z,17.59
2022-10-29T21:28:29.646Z,17.47
2022-10-29T21:31:01.542Z,17.36
2022-10-29T21:33:33.436Z,17.45
2022-10-29T21:36:06.430Z,17.43
2022-10-29T21:38:37.307Z,17.34
2022-10-29T21:41:07.178Z,16.87
2022-10-29T21:43:38.041Z,16.99
2022-10-29T21:46:09.524Z,16.94
2022-10-29T21:48:40.362Z,16.94
2022-10-29T21:51:15.171Z,16.55
2022-10-29T21:53:46.124Z,16.75
2022-10-29T21:56:17.921Z,16.81
2022-10-29T21:58:48.809Z,16.79
2022-10-29T22:01:19.486Z,16.66
2022-10-29T22:03:50.965Z,16.68
2022-10-29T22:06:25.759Z,16.57
2022-10-29T22:08:57.251Z,16.19
2022-10-29T22:11:27.786Z,16.55
2022-10-29T22:13:58.030Z,16.51
2022-10-29T22:16:31.659Z,16.66
2022-10-29T22:19:03.045Z,16.67
2022-10-29T22:21:35.464Z,16.72
2022-10-29T22:24:06.177Z,16.80
2022-10-29T22:26:36.496Z,16.71
2022-10-29T22:29:07.391Z,16.82
2022-10-29T22:31:38.140Z,16.61
2022-10-29T22:34:09.123Z,16.87
2022-10-29T22:36:41.499Z,16.60
2022-10-29T22:39:12.652Z,16.88
2022-10-29T22:41:44.486Z,18.02
2022-10-29T22:44:15.256Z,17.46
2022-10-29T22:46:46.198Z,17.31
2022-10-29T22:49:16.994Z,17.36
2022-10-29T22:51:49.338Z,17.09
2022-10-29T22:54:19.334Z,17.62
2022-10-29T22:56:49.174Z,17.75
2022-10-29T22:59:21.024Z,17.85
2022-10-29T23:01:50.911Z,17.87
2022-10-29T23:04:20.775Z,17.89
2022-10-29T23:06:57.892Z,18.04
2022-10-29T23:09:32.684Z,18.01
2022-10-29T23:12:03.524Z,17.92
2022-10-29T23:14:35.317Z,18.13
2022-10-29T23:17:05.089Z,18.12
2022-10-29T23:19:35.944Z,17.99
2022-10-29T23:22:09.367Z,17.72
2022-10-29T23:24:39.153Z,18.12
2022-10-29T23:27:08.949Z,18.15
2022-10-29T23:29:38.799Z,18.15
2022-10-29T23:32:10.621Z,18.21
2022-10-29T23:34:40.404Z,18.14
2022-10-29T23:37:12.877Z,18.02
2022-10-29T23:39:44.706Z,18.13
2022-10-29T23:42:14.493Z,17.90
2022-10-29T23:44:45.369Z,17.90
2022-10-29T23:47:16.271Z,18.13
2022-10-29T23:49:46.085Z,18.23
2022-10-29T23:52:19.526Z,18.36
2022-10-29T23:54:49.282Z,18.39
2022-10-29T23:57:20.137Z,18.43
2022-10-29T23:59:50.987Z,18.31
